createdAt,value
2019-01-05T00:02:16.018Z,7.20
2019-01-05T00:04:56.411Z,7.20
2019-01-05T00:07:27.540Z,7.20
2019-01-05T00:10:10.810Z,7.20
2019-01-05T00:12:55.540Z,7.40
2019-01-05T00:15:30.027Z,7.30
2019-01-05T00:18:14.756Z,7.30
2019-01-05T00:20:51.871Z,7.30
2019-01-05T00:23:22.786Z,7.30
2019-01-05T00:26:02.886Z,7.30
2019-01-05T00:28:36.869Z,7.40
2019-01-05T00:31:13.809Z,7.40
2019-01-05T00:33:48.024Z,7.40
2019-01-05T00:36:20.130Z,7.40
2019-01-05T00:38:48.663Z,7.50
2019-01-05T00:41:24.406Z,7.50
2019-01-05T00:44:09.320Z,7.60
2019-01-05T00:46:37.498Z,7.60
2019-01-05T00:49:22.260Z,7.60
2019-01-05T00:51:51.117Z,7.60
2019-01-05T00:54:19.302Z,7.60
2019-01-05T00:57:05.472Z,7.60
2019-01-05T00:59:34.006Z,7.60
2019-01-05T01:02:14.460Z,7.60
2019-01-05T01:04:59.472Z,7.60
2019-01-05T01:07:45.782Z,7.60
2019-01-05T01:10:29.114Z,7.60
2019-01-05T01:13:00.231Z,7.60
2019-01-05T01:15:29.534Z,7.60
2019-01-05T01:18:14.496Z,7.50
2019-01-05T01:21:00.848Z,7.50
2019-01-05T01:23:34.760Z,7.50
2019-01-05T01:26:09.008Z,7.40
2019-01-05T01:28:53.686Z,7.40
2019-01-05T01:31:21.854Z,7.40
2019-01-05T01:33:53.118Z,7.40
2019-01-05T01:36:33.595Z,7.40
2019-01-05T01:39:07.928Z,7.40
2019-01-05T01:41:53.047Z,7.40
2019-01-05T01:44:27.001Z,7.40
2019-01-05T01:47:01.189Z,7.40
2019-01-05T01:49:44.193Z,7.40
2019-01-05T01:52:28.887Z,7.40
2019-01-05T01:55:12.438Z,7.30
2019-01-05T01:57:43.595Z,7.30
2019-01-05T02:00:28.624Z,7.40
2019-01-05T02:03:05.879Z,7.30
2019-01-05T02:05:49.771Z,7.40
2019-01-05T02:08:36.037Z,7.40
2019-01-05T02:11:04.693Z,7.40
2019-01-05T02:13:42.914Z,7.40
2019-01-05T02:16:29.687Z,7.40
2019-01-05T02:19:09.719Z,7.40
2019-01-05T02:21:44.406Z,7.50
2019-01-05T02:24:34.417Z,7.50
2019-01-05T02:27:12.149Z,7.50
2019-01-05T02:30:17.984Z,7.50
2019-01-05T02:32:58.971Z,7.50
2019-01-05T02:35:45.287Z,7.40
2019-01-05T02:38:53.971Z,7.40
2019-01-05T02:41:35.265Z,7.50
2019-01-05T02:44:22.267Z,7.40
2019-01-05T02:47:12.627Z,7.40
2019-01-05T02:50:02.438Z,7.30
2019-01-05T02:52:55.514Z,7.30
2019-01-05T02:55:45.091Z,7.30
2019-01-05T02:58:34.675Z,7.30
2019-01-05T03:01:35.655Z,7.20
2019-01-05T03:04:13.809Z,7.20
2019-01-05T03:07:10.421Z,7.10
2019-01-05T03:09:57.548Z,7.10
2019-01-05T03:12:44.181Z,7.10
2019-01-05T03:15:52.867Z,7.00
2019-01-05T03:18:48.649Z,7.00
2019-01-05T03:21:40.953Z,6.90
2019-01-05T03:24:34.407Z,6.90
2019-01-05T03:27:41.105Z,6.80
2019-01-05T03:30:27.895Z,6.80
2019-01-05T03:33:23.996Z,6.70
2019-01-05T03:36:20.029Z,6.70
2019-01-05T03:39:22.591Z,6.70
2019-01-05T03:42:06.114Z,6.70
2019-01-05T03:45:14.416Z,6.70
2019-01-05T03:48:00.877Z,6.60
2019-01-05T03:50:48.313Z,6.60
2019-01-05T03:53:43.091Z,6.70
2019-01-05T03:56:24.353Z,6.70
2019-01-05T03:59:31.513Z,6.60
2019-01-05T04:02:41.455Z,6.60
2019-01-05T04:05:37.319Z,6.70
2019-01-05T04:08:33.339Z,6.60
2019-01-05T04:11:21.919Z,6.60
2019-01-05T04:14:15.396Z,6.70
2019-01-05T04:17:11.213Z,6.60
2019-01-05T04:19:45.874Z,6.70
2019-01-05T04:22:55.001Z,6.70
2019-01-05T04:25:47.753Z,6.80
2019-01-05T04:28:37.586Z,6.70
2019-01-05T04:31:27.846Z,6.80
2019-01-05T04:34:05.803Z,6.80
2019-01-05T04:37:10.339Z,6.80
2019-01-05T04:39:51.545Z,6.80
2019-01-05T04:42:46.680Z,6.80
2019-01-05T04:45:35.489Z,6.80
2019-01-05T04:48:28.614Z,6.90
2019-01-05T04:51:03.696Z,6.80
2019-01-05T04:54:10.750Z,6.80
2019-01-05T04:57:19.949Z,6.90
2019-01-05T05:00:32.641Z,6.90
2019-01-05T05:03:41.629Z,7.00
2019-01-05T05:06:51.555Z,6.90
2019-01-05T05:09:57.678Z,7.00
2019-01-05T05:12:44.817Z,7.00
2019-01-05T05:15:32.967Z,7.00
2019-01-05T05:18:17.136Z,7.10
2019-01-05T05:21:13.670Z,7.10
2019-01-05T05:24:11.747Z,7.20
2019-01-05T05:26:52.595Z,7.20
2019-01-05T05:29:59.767Z,7.20
2019-01-05T05:32:54.308Z,7.20
2019-01-05T05:35:50.899Z,7.20
2019-01-05T05:38:47.075Z,7.20
2019-01-05T05:41:33.570Z,7.20
2019-01-05T05:44:39.455Z,7.10
2019-01-05T05:47:26.316Z,7.20
2019-01-05T05:50:35.314Z,7.20
2019-01-05T05:53:27.330Z,7.10
2019-01-05T05:56:50.013Z,7.10
2019-01-05T05:59:43.682Z,7.10
2019-01-05T06:02:21.045Z,7.00
2019-01-05T06:05:15.639Z,7.00
2019-01-05T06:08:10.196Z,7.00
2019-01-05T06:10:59.342Z,7.00
2019-01-05T06:13:43.068Z,7.00
2019-01-05T06:16:34.882Z,6.90
2019-01-05T06:19:44.770Z,7.00
2019-01-05T06:22:45.667Z,6.90
2019-01-05T06:25:50.703Z,6.90
2019-01-05T06:28:42.701Z,6.90
2019-01-05T06:31:46.806Z,6.90
2019-01-05T06:34:24.796Z,6.80
2019-01-05T06:37:17.679Z,6.80
2019-01-05T06:39:58.448Z,6.80
2019-01-05T06:42:50.320Z,6.90
2019-01-05T06:45:39.998Z,6.80
2019-01-05T06:48:38.802Z,6.80
2019-01-05T06:51:36.342Z,6.90
2019-01-05T06:54:45.370Z,6.80
2019-01-05T06:57:35.256Z,6.80
2019-01-05T07:00:27.074Z,6.80
2019-01-05T07:03:19.387Z,6.80
2019-01-05T07:06:10.633Z,6.90
2019-01-05T07:09:33.470Z,6.90
2019-01-05T07:12:20.907Z,6.90
2019-01-05T07:15:32.276Z,6.90
2019-01-05T07:18:33.770Z,6.80
2019-01-05T07:21:42.968Z,6.80
2019-01-05T07:24:44.102Z,6.80
2019-01-05T07:28:04.849Z,6.80
2019-01-05T07:31:13.152Z,6.80
2019-01-05T07:34:01.936Z,6.80
2019-01-05T07:36:56.515Z,6.90
2019-01-05T07:39:55.270Z,6.90
2019-01-05T07:43:02.126Z,7.00
2019-01-05T07:45:50.113Z,6.90
2019-01-05T07:48:58.779Z,7.10
2019-01-05T07:52:04.478Z,7.10
2019-01-05T07:55:05.771Z,7.10
2019-01-05T07:57:49.682Z,7.10
2019-01-05T08:00:52.358Z,7.10
2019-01-05T08:03:36.693Z,7.10
2019-01-05T08:06:32.061Z,7.20
2019-01-05T08:09:20.602Z,7.20
2019-01-05T08:12:25.758Z,7.20
2019-01-05T08:15:29.938Z,7.30
2019-01-05T08:18:24.863Z,7.30
2019-01-05T08:21:27.125Z,7.40
2019-01-05T08:24:14.375Z,7.40
2019-01-05T08:27:30.651Z,7.40
2019-01-05T08:30:31.387Z,7.40
2019-01-05T08:33:39.308Z,7.50
2019-01-05T08:36:45.395Z,7.50
2019-01-05T08:40:06.491Z,7.50
2019-01-05T08:43:18.592Z,7.50
2019-01-05T08:45:56.597Z,7.50
2019-01-05T08:48:48.001Z,7.50
2019-01-05T08:51:31.957Z,7.50
2019-01-05T08:54:29.313Z,7.60
2019-01-05T08:57:06.878Z,7.60
2019-01-05T09:00:15.604Z,7.60
2019-01-05T09:03:13.697Z,7.60
2019-01-05T09:06:08.788Z,7.60
2019-01-05T09:09:28.407Z,7.60
2019-01-05T09:12:23.895Z,7.60
2019-01-05T09:15:30.913Z,7.60
2019-01-05T09:18:39.761Z,7.60
2019-01-05T09:21:32.879Z,7.50
2019-01-05T09:24:32.357Z,7.60
2019-01-05T09:27:34.305Z,7.60
2019-01-05T09:30:44.648Z,7.60
2019-01-05T09:33:36.440Z,7.60
2019-01-05T09:36:26.114Z,7.60
2019-01-05T09:39:22.025Z,7.60
2019-01-05T09:42:31.564Z,7.60
2019-01-05T09:45:53.911Z,7.60
2019-01-05T09:48:43.664Z,7.60
2019-01-05T09:52:02.607Z,7.60
2019-01-05T09:54:55.762Z,7.70
2019-01-05T09:58:02.641Z,7.70
2019-01-05T10:01:10.192Z,7.70
2019-01-05T10:04:09.813Z,7.70
2019-01-05T10:07:05.883Z,7.80
2019-01-05T10:10:10.661Z,7.80
2019-01-05T10:13:03.451Z,7.90
2019-01-05T10:16:26.778Z,7.90
2019-01-05T10:19:25.845Z,8.00
2019-01-05T10:22:09.748Z,8.10
2019-01-05T10:25:07.641Z,8.10
2019-01-05T10:28:05.479Z,8.10
2019-01-05T10:30:52.253Z,8.20
2019-01-05T10:33:27.279Z,8.20
2019-01-05T10:36:40.174Z,8.20
2019-01-05T10:39:34.694Z,8.20
2019-01-05T10:42:52.010Z,8.20
2019-01-05T10:45:56.055Z,8.20
2019-01-05T10:48:39.500Z,8.10
2019-01-05T10:51:44.060Z,8.10
2019-01-05T10:54:54.161Z,8.10
2019-01-05T10:57:54.630Z,8.10
2019-01-05T11:00:47.599Z,8.00
2019-01-05T11:04:03.409Z,8.00
2019-01-05T11:07:13.136Z,8.00
2019-01-05T11:10:09.563Z,8.00
2019-01-05T11:13:00.845Z,8.00
2019-01-05T11:15:44.407Z,8.00
2019-01-05T11:18:30.909Z,8.00
2019-01-05T11:21:09.228Z,8.10
2019-01-05T11:24:05.454Z,8.10
2019-01-05T11:27:03.264Z,8.10
2019-01-05T11:30:14.074Z,8.20
2019-01-05T11:33:05.861Z,8.20
2019-01-05T11:35:52.548Z,8.20
2019-01-05T11:39:07.048Z,8.20
2019-01-05T11:42:02.790Z,8.30
2019-01-05T11:45:23.572Z,8.30
2019-01-05T11:48:27.664Z,8.40
2019-01-05T11:51:41.035Z,8.40
2019-01-05T11:54:33.462Z,8.40
2019-01-05T11:57:48.366Z,8.40
2019-01-05T12:00:26.538Z,8.40
2019-01-05T12:03:16.888Z,8.40
2019-01-05T12:06:00.115Z,8.40
2019-01-05T12:09:15.924Z,8.50
2019-01-05T12:12:02.727Z,8.50
2019-01-05T12:14:46.780Z,8.50
2019-01-05T12:17:52.630Z,8.50
2019-01-05T12:20:56.968Z,8.50
2019-01-05T12:23:51.871Z,8.50
2019-01-05T12:26:35.339Z,8.50
2019-01-05T12:29:47.322Z,8.40
2019-01-05T12:32:22.081Z,8.40
2019-01-05T12:35:09.076Z,8.40
2019-01-05T12:37:55.434Z,8.40
2019-01-05T12:40:52.744Z,8.50
2019-01-05T12:43:36.243Z,8.50
2019-01-05T12:46:37.045Z,8.50
2019-01-05T12:49:35.637Z,8.50
2019-01-05T12:52:19.074Z,8.50
2019-01-05T12:55:02.903Z,8.50
2019-01-05T12:57:46.943Z,8.50
2019-01-05T13:00:34.076Z,8.60
2019-01-05T13:03:39.182Z,8.60
2019-01-05T13:06:37.300Z,8.60
2019-01-05T13:09:52.544Z,8.60
2019-01-05T13:12:53.402Z,8.60
2019-01-05T13:15:37.405Z,8.60
2019-01-05T13:18:31.297Z,8.70
2019-01-05T13:21:43.206Z,8.70
2019-01-05T13:24:47.193Z,8.70
2019-01-05T13:27:55.737Z,8.80
2019-01-05T13:30:44.799Z,8.80
2019-01-05T13:33:40.625Z,8.90
2019-01-05T13:36:44.903Z,8.90
2019-01-05T13:39:57.823Z,8.90
2019-01-05T13:42:58.647Z,9.00
2019-01-05T13:46:11.846Z,9.00
2019-01-05T13:49:26.664Z,9.00
2019-01-05T13:52:38.154Z,9.00
2019-01-05T13:55:25.017Z,9.00
2019-01-05T13:58:10.077Z,9.00
2019-01-05T14:03:35.284Z,9.10
2019-01-05T14:06:21.513Z,9.10
2019-01-05T14:08:49.677Z,9.20
2019-01-05T14:11:29.792Z,9.30
2019-01-05T14:14:04.006Z,9.30
2019-01-05T14:16:49.150Z,9.40
2019-01-05T14:19:35.507Z,9.40
2019-01-05T14:22:03.711Z,9.50
2019-01-05T14:24:31.879Z,9.60
2019-01-05T14:27:16.659Z,9.60
2019-01-05T14:29:50.788Z,9.70
2019-01-05T14:32:21.711Z,9.70
2019-01-05T14:35:06.479Z,9.80
2019-01-05T14:37:37.789Z,9.80
2019-01-05T14:40:24.574Z,9.90
2019-01-05T14:43:07.878Z,9.90
2019-01-05T14:45:36.021Z,9.90
2019-01-05T14:48:22.576Z,9.90
2019-01-05T14:51:09.006Z,9.90
2019-01-05T14:53:45.649Z,9.90
2019-01-05T14:56:28.857Z,9.90
2019-01-05T14:59:09.134Z,9.90
2019-01-05T15:01:37.283Z,9.90
2019-01-05T15:04:22.055Z,9.90
2019-01-05T15:07:02.083Z,9.90
2019-01-05T15:09:32.950Z,9.90
2019-01-05T15:12:01.084Z,9.90
2019-01-05T15:15:00.625Z,9.90
2019-01-05T15:17:45.618Z,9.90
2019-01-05T15:20:25.764Z,10.00
2019-01-05T15:22:56.821Z,10.00
2019-01-05T15:25:30.533Z,10.00
2019-01-05T15:28:07.732Z,10.00
2019-01-05T15:30:52.741Z,10.00
2019-01-05T15:33:37.792Z,10.10
2019-01-05T15:36:05.979Z,10.10
2019-01-05T15:38:50.858Z,10.10
2019-01-05T15:41:35.638Z,10.10
2019-01-05T15:44:20.378Z,10.10
2019-01-05T15:46:57.526Z,10.10
2019-01-05T15:49:42.286Z,10.10
2019-01-05T15:52:16.244Z,10.10
2019-01-05T15:55:01.041Z,10.10
2019-01-05T15:57:29.178Z,10.10
2019-01-05T16:00:06.142Z,10.10
2019-01-05T16:02:34.210Z,10.10
2019-01-05T16:05:17.656Z,10.10
2019-01-05T16:07:48.566Z,10.20
2019-01-05T16:10:25.632Z,10.20
2019-01-05T16:13:10.726Z,10.20
2019-01-05T16:15:55.481Z,10.20
2019-01-05T16:18:23.605Z,10.20
2019-01-05T16:21:08.424Z,10.20
2019-01-05T16:23:51.585Z,10.20
2019-01-05T16:26:26.261Z,10.20
2019-01-05T16:29:00.662Z,10.20
2019-01-05T16:31:28.846Z,10.20
2019-01-05T16:34:06.787Z,10.20
2019-01-05T16:36:50.102Z,10.20
2019-01-05T16:39:30.211Z,10.20
2019-01-05T16:41:58.393Z,10.30
2019-01-05T16:44:43.417Z,10.30
2019-01-05T16:47:11.620Z,10.30
2019-01-05T16:49:48.744Z,10.30
2019-01-05T16:52:16.892Z,10.30
2019-01-05T16:55:01.734Z,10.30
2019-01-05T16:57:35.631Z,10.30
2019-01-05T17:00:09.547Z,10.20
2019-01-05T17:02:43.897Z,10.20
2019-01-05T17:05:12.078Z,10.20
2019-01-05T17:07:55.302Z,10.20
2019-01-05T17:10:23.464Z,10.20
2019-01-05T17:13:08.182Z,10.20
2019-01-05T17:15:54.580Z,10.20
2019-01-05T17:18:22.757Z,10.20
2019-01-05T17:21:07.705Z,10.10
2019-01-05T17:23:36.112Z,10.10
2019-01-05T17:26:04.268Z,10.10
2019-01-05T17:28:41.226Z,10.10
2019-01-05T17:31:15.372Z,10.10
2019-01-05T17:33:43.642Z,10.20
2019-01-05T17:36:21.168Z,10.20
2019-01-05T17:38:49.361Z,10.20
2019-01-05T17:41:17.489Z,10.20
2019-01-05T17:43:51.766Z,10.20
2019-01-05T17:46:26.092Z,10.20
2019-01-05T17:48:54.297Z,10.20
2019-01-05T17:51:38.894Z,10.30
2019-01-05T17:54:12.569Z,10.30
2019-01-05T17:56:53.101Z,10.30
2019-01-05T17:59:39.349Z,10.30
2019-01-05T18:02:19.613Z,10.30
2019-01-05T18:04:57.188Z,10.30
2019-01-05T18:07:25.378Z,10.20
2019-01-05T18:09:53.577Z,10.20
2019-01-05T18:12:30.847Z,10.20
2019-01-05T18:15:08.313Z,10.30
2019-01-05T18:17:39.236Z,10.30
2019-01-05T18:20:22.536Z,10.30
2019-01-05T18:23:07.446Z,10.30
2019-01-05T18:25:52.271Z,10.30
2019-01-05T18:28:23.439Z,10.30
2019-01-05T18:31:10.147Z,10.30
2019-01-05T18:33:54.769Z,10.30
2019-01-05T18:36:22.963Z,10.30
2019-01-05T18:39:09.315Z,10.30
2019-01-05T18:41:37.525Z,10.30
2019-01-05T18:44:08.426Z,10.30
2019-01-05T18:46:53.427Z,10.40
2019-01-05T18:49:24.481Z,10.40
2019-01-05T18:51:58.499Z,10.40
2019-01-05T18:54:26.663Z,10.50
2019-01-05T18:57:11.559Z,10.50
2019-01-05T18:59:45.683Z,10.60
2019-01-05T19:02:19.486Z,10.60
2019-01-05T19:05:02.514Z,10.60
2019-01-05T19:07:46.083Z,10.60
2019-01-05T19:10:17.116Z,10.70
2019-01-05T19:12:45.163Z,10.70
2019-01-05T19:15:13.390Z,10.70
2019-01-05T19:17:41.590Z,10.70
2019-01-05T19:20:09.762Z,10.80
2019-01-05T19:22:37.968Z,10.80
2019-01-05T19:25:23.317Z,10.90
2019-01-05T19:28:06.599Z,10.90
2019-01-05T19:30:43.728Z,11.00
2019-01-05T19:33:28.285Z,11.00
2019-01-05T19:35:56.460Z,11.00
2019-01-05T19:38:27.691Z,11.00
2019-01-05T19:41:12.426Z,11.00
2019-01-05T19:43:46.399Z,11.00
2019-01-05T19:46:31.423Z,11.00
2019-01-05T19:48:59.566Z,11.00
2019-01-05T19:51:27.788Z,11.00
2019-01-05T19:53:55.943Z,11.00
2019-01-05T19:56:40.589Z,11.00
2019-01-05T19:59:20.838Z,11.00
2019-01-05T20:01:51.904Z,11.10
2019-01-05T20:04:32.340Z,11.00
2019-01-05T20:07:17.495Z,11.00
2019-01-05T20:10:02.121Z,11.00
2019-01-05T20:12:39.233Z,11.00
2019-01-05T20:15:13.261Z,11.10
2019-01-05T20:17:58.325Z,11.10
2019-01-05T20:20:26.470Z,11.00
2019-01-05T20:23:09.948Z,11.00
2019-01-05T20:25:47.046Z,11.00
2019-01-05T20:28:17.981Z,11.00
2019-01-05T20:31:03.099Z,11.00
2019-01-05T20:33:31.221Z,11.00
2019-01-05T20:36:11.149Z,11.00
2019-01-05T20:38:45.030Z,11.00
2019-01-05T20:41:29.800Z,11.10
2019-01-05T20:44:15.023Z,11.10
2019-01-05T20:46:59.965Z,11.00
2019-01-05T20:49:28.127Z,11.00
2019-01-05T20:51:56.253Z,11.00
2019-01-05T20:54:24.419Z,11.00
2019-01-05T20:56:55.338Z,11.00
2019-01-05T20:59:26.532Z,11.00
2019-01-05T21:02:11.603Z,11.00
2019-01-05T21:04:42.597Z,11.00
2019-01-05T21:07:17.024Z,11.00
2019-01-05T21:09:51.176Z,11.00
2019-01-05T21:12:19.354Z,11.00
2019-01-05T21:14:50.481Z,11.00
2019-01-05T21:17:18.645Z,11.00
2019-01-05T21:19:49.858Z,11.00
2019-01-05T21:22:18.071Z,11.00
2019-01-05T21:24:46.210Z,11.00
2019-01-05T21:27:32.359Z,11.00
2019-01-05T21:30:17.136Z,11.00
2019-01-05T21:33:03.464Z,11.00
2019-01-05T21:35:48.341Z,11.00
2019-01-05T21:38:16.566Z,11.00
2019-01-05T21:40:54.039Z,11.00
2019-01-05T21:43:31.299Z,11.00
2019-01-05T21:46:16.182Z,11.00
2019-01-05T21:49:01.020Z,10.90
2019-01-05T21:51:34.939Z,10.90
2019-01-05T21:54:03.098Z,10.90
2019-01-05T21:56:37.310Z,10.80
2019-01-05T21:59:08.234Z,10.80
2019-01-05T22:01:53.295Z,10.80
2019-01-05T22:04:21.440Z,10.80
2019-01-05T22:07:06.298Z,10.80
2019-01-05T22:09:52.626Z,10.80
2019-01-05T22:12:29.876Z,10.80
2019-01-05T22:15:00.768Z,10.80
2019-01-05T22:17:45.961Z,10.80
2019-01-05T22:20:14.122Z,10.90
2019-01-05T22:22:51.994Z,10.90
2019-01-05T22:25:20.827Z,10.90
2019-01-05T22:28:01.191Z,10.90
2019-01-05T22:30:35.506Z,10.90
2019-01-05T22:33:20.641Z,10.90
2019-01-05T22:35:48.791Z,10.80
2019-01-05T22:38:16.945Z,10.80
2019-01-05T22:41:01.707Z,10.90
2019-01-05T22:43:29.770Z,10.90
2019-01-05T22:45:57.893Z,10.90
2019-01-05T22:48:35.435Z,10.90
2019-01-05T22:51:12.583Z,10.90
2019-01-05T22:53:49.856Z,10.90
2019-01-05T22:56:33.371Z,10.90
2019-01-05T22:59:19.766Z,10.90
2019-01-05T23:01:59.837Z,10.80
2019-01-05T23:04:37.190Z,10.80
2019-01-05T23:07:22.356Z,10.80
2019-01-05T23:09:53.268Z,10.80
2019-01-05T23:12:24.156Z,10.80
2019-01-05T23:14:58.066Z,10.90
2019-01-05T23:17:43.087Z,10.90
2019-01-05T23:20:26.293Z,10.80
2019-01-05T23:23:06.587Z,10.90
2019-01-05T23:25:37.830Z,10.80
2019-01-05T23:28:09.013Z,10.80
2019-01-05T23:31:00.669Z,10.80
2019-01-05T23:33:38.008Z,10.70
2019-01-05T23:36:09.475Z,10.80
2019-01-05T23:38:50.088Z,10.90
2019-01-05T23:41:30.625Z,10.80
2019-01-05T23:44:13.857Z,10.80
2019-01-05T23:46:58.783Z,10.90
2019-01-05T23:49:43.682Z,10.90
2019-01-05T23:52:20.906Z,10.80
2019-01-05T23:54:55.255Z,10.80
2019-01-05T23:57:40.297Z,10.90
